sensor_id;sensor_type;location;lat;lon;timestamp;pressure;altitude;pressure_sealevel;temperature;humidity
69027;BME280;56080;47.594;19.116;2023-03-16T00:02:36;100209;;;5.21;45.88
69027;BME280;56080;47.594;19.116;2023-03-16T00:12:37;100217;;;5.03;47.24
69027;BME280;56080;47.594;19.116;2023-03-16T00:22:37;100234;;;5.01;47.47
69027;BME280;56080;47.594;19.116;2023-03-16T00:32:38;100241;;;4.97;47.54
69027;BME280;56080;47.594;19.116;2023-03-16T00:42:38;100236;;;4.76;48.25
69027;BME280;56080;47.594;19.116;2023-03-16T00:52:38;100239;;;4.64;49.02
69027;BME280;56080;47.594;19.116;2023-03-16T01:02:39;100249;;;4.61;49.29
69027;BME280;56080;47.594;19.116;2023-03-16T01:12:39;100252;;;4.48;49.97
69027;BME280;56080;47.594;19.116;2023-03-16T01:22:41;100255;;;4.36;50.17
69027;BME280;56080;47.594;19.116;2023-03-16T01:32:40;100257;;;4.29;50.40
69027;BME280;56080;47.594;19.116;2023-03-16T01:42:42;100257;;;4.32;50.42
69027;BME280;56080;47.594;19.116;2023-03-16T01:52:41;100265;;;4.29;50.59
69027;BME280;56080;47.594;19.116;2023-03-16T02:02:42;100280;;;4.21;51.02
69027;BME280;56080;47.594;19.116;2023-03-16T02:12:42;100290;;;3.85;52.57
69027;BME280;56080;47.594;19.116;2023-03-16T02:22:45;100308;;;3.84;53.22
69027;BME280;56080;47.594;19.116;2023-03-16T02:32:42;100323;;;3.77;53.70
69027;BME280;56080;47.594;19.116;2023-03-16T02:42:42;100332;;;3.72;54.64
69027;BME280;56080;47.594;19.116;2023-03-16T02:52:42;100346;;;3.58;55.36
69027;BME280;56080;47.594;19.116;2023-03-16T03:02:43;100360;;;3.64;55.53
69027;BME280;56080;47.594;19.116;2023-03-16T03:12:43;100372;;;3.55;56.13
69027;BME280;56080;47.594;19.116;2023-03-16T03:22:45;100389;;;3.41;56.86
69027;BME280;56080;47.594;19.116;2023-03-16T03:32:43;100400;;;3.41;57.12
69027;BME280;56080;47.594;19.116;2023-03-16T03:42:43;100411;;;3.35;57.38
69027;BME280;56080;47.594;19.116;2023-03-16T03:52:43;100414;;;3.41;57.33
69027;BME280;56080;47.594;19.116;2023-03-16T04:02:44;100427;;;3.26;58.03
69027;BME280;56080;47.594;19.116;2023-03-16T04:12:44;100435;;;3.25;58.04
69027;BME280;56080;47.594;19.116;2023-03-16T04:22:45;100430;;;3.29;58.01
69027;BME280;56080;47.594;19.116;2023-03-16T04:32:44;100446;;;3.25;58.05
69027;BME280;56080;47.594;19.116;2023-03-16T04:42:45;100454;;;3.07;58.57
69027;BME280;56080;47.594;19.116;2023-03-16T04:52:45;100462;;;3.23;58.24
69027;BME280;56080;47.594;19.116;2023-03-16T05:02:45;100478;;;3.26;57.83
69027;BME280;56080;47.594;19.116;2023-03-16T05:12:45;100497;;;2.56;60.13
69027;BME280;56080;47.594;19.116;2023-03-16T05:32:46;100506;;;2.61;60.48
69027;BME280;56080;47.594;19.116;2023-03-16T05:42:47;100515;;;2.51;61.01
69027;BME280;56080;47.594;19.116;2023-03-16T05:52:46;100516;;;2.67;60.93
69027;BME280;56080;47.594;19.116;2023-03-16T06:02:48;100530;;;3.08;59.72
69027;BME280;56080;47.594;19.116;2023-03-16T06:12:47;100540;;;3.45;57.99
69027;BME280;56080;47.594;19.116;2023-03-16T06:22:47;100550;;;3.66;57.06
69027;BME280;56080;47.594;19.116;2023-03-16T06:32:47;100557;;;4.06;54.84
69027;BME280;56080;47.594;19.116;2023-03-16T06:42:48;100572;;;4.32;52.92
69027;BME280;56080;47.594;19.116;2023-03-16T06:52:48;100578;;;4.50;49.21
69027;BME280;56080;47.594;19.116;2023-03-16T07:02:48;100586;;;4.75;47.98
69027;BME280;56080;47.594;19.116;2023-03-16T07:12:49;100596;;;4.96;46.51
69027;BME280;56080;47.594;19.116;2023-03-16T07:22:49;100603;;;5.35;45.62
69027;BME280;56080;47.594;19.116;2023-03-16T07:32:50;100613;;;5.45;44.56
69027;BME280;56080;47.594;19.116;2023-03-16T07:42:49;100622;;;5.67;43.74
69027;BME280;56080;47.594;19.116;2023-03-16T07:52:50;100626;;;5.93;43.30
69027;BME280;56080;47.594;19.116;2023-03-16T08:02:51;100646;;;6.09;45.05
69027;BME280;56080;47.594;19.116;2023-03-16T08:12:51;100638;;;6.22;42.17
69027;BME280;56080;47.594;19.116;2023-03-16T08:22:51;100645;;;7.16;39.99
69027;BME280;56080;47.594;19.116;2023-03-16T08:42:53;100649;;;11.13;32.14
69027;BME280;56080;47.594;19.116;2023-03-16T09:02:54;100644;;;12.94;28.96
69027;BME280;56080;47.594;19.116;2023-03-16T09:12:55;100658;;;12.36;29.53
69027;BME280;56080;47.594;19.116;2023-03-16T09:22:56;100661;;;13.20;27.88
69027;BME280;56080;47.594;19.116;2023-03-16T09:32:57;100666;;;11.44;29.88
69027;BME280;56080;47.594;19.116;2023-03-16T09:53:02;100664;;;11.95;27.31
69027;BME280;56080;47.594;19.116;2023-03-16T10:03:04;100668;;;11.84;27.94
69027;BME280;56080;47.594;19.116;2023-03-16T10:13:01;100677;;;11.77;28.78
69027;BME280;56080;47.594;19.116;2023-03-16T10:23:07;100686;;;10.71;29.80
69027;BME280;56080;47.594;19.116;2023-03-16T10:43:05;100679;;;9.94;28.53
69027;BME280;56080;47.594;19.116;2023-03-16T10:53:08;100681;;;9.70;29.16
69027;BME280;56080;47.594;19.116;2023-03-16T11:03:19;100668;;;9.72;28.45
69027;BME280;56080;47.594;19.116;2023-03-16T11:13:10;100656;;;9.82;26.94
69027;BME280;56080;47.594;19.116;2023-03-16T11:23:09;100664;;;9.60;27.51
69027;BME280;56080;47.594;19.116;2023-03-16T11:43:13;100635;;;10.07;25.83
69027;BME280;56080;47.594;19.116;2023-03-16T11:53:13;100623;;;9.43;24.71
69027;BME280;56080;47.594;19.116;2023-03-16T12:13:18;100619;;;10.16;23.17
69027;BME280;56080;47.594;19.116;2023-03-16T12:23:13;100619;;;9.89;23.05
69027;BME280;56080;47.594;19.116;2023-03-16T13:03:18;100627;;;9.82;22.38
69027;BME280;56080;47.594;19.116;2023-03-16T13:13:16;100617;;;9.96;21.13
69027;BME280;56080;47.594;19.116;2023-03-16T13:33:19;100603;;;9.94;20.48
69027;BME280;56080;47.594;19.116;2023-03-16T13:43:20;100608;;;10.11;21.51
69027;BME280;56080;47.594;19.116;2023-03-16T13:53:21;100601;;;10.05;21.60
69027;BME280;56080;47.594;19.116;2023-03-16T14:23:22;100603;;;10.39;20.62
69027;BME280;56080;47.594;19.116;2023-03-16T14:33:25;100621;;;10.22;21.22
69027;BME280;56080;47.594;19.116;2023-03-16T14:43:26;100623;;;10.17;20.42
69027;BME280;56080;47.594;19.116;2023-03-16T14:53:27;100622;;;10.22;20.56
69027;BME280;56080;47.594;19.116;2023-03-16T15:03:29;100643;;;10.10;20.15
69027;BME280;56080;47.594;19.116;2023-03-16T15:13:35;100639;;;10.05;19.76
69027;BME280;56080;47.594;19.116;2023-03-16T15:23:26;100639;;;10.03;20.53
69027;BME280;56080;47.594;19.116;2023-03-16T15:33:27;100654;;;10.09;20.29
69027;BME280;56080;47.594;19.116;2023-03-16T15:43:28;100663;;;10.12;20.94
69027;BME280;56080;47.594;19.116;2023-03-16T15:53:36;100672;;;10.10;21.58
69027;BME280;56080;47.594;19.116;2023-03-16T16:03:29;100677;;;9.97;21.33
69027;BME280;56080;47.594;19.116;2023-03-16T16:13:40;100695;;;9.86;21.12
69027;BME280;56080;47.594;19.116;2023-03-16T16:23:31;100706;;;9.72;21.20
69027;BME280;56080;47.594;19.116;2023-03-16T16:33:32;100720;;;9.59;22.11
69027;BME280;56080;47.594;19.116;2023-03-16T16:43:36;100730;;;9.42;22.89
69027;BME280;56080;47.594;19.116;2023-03-16T16:53:32;100740;;;9.31;23.45
69027;BME280;56080;47.594;19.116;2023-03-16T17:13:38;100771;;;9.03;24.76
69027;BME280;56080;47.594;19.116;2023-03-16T17:23:38;100774;;;8.73;24.59
69027;BME280;56080;47.594;19.116;2023-03-16T17:33:35;100782;;;8.61;24.91
69027;BME280;56080;47.594;19.116;2023-03-16T17:43:36;100798;;;8.42;25.85
69027;BME280;56080;47.594;19.116;2023-03-16T17:53:39;100801;;;8.11;26.66
69027;BME280;56080;47.594;19.116;2023-03-16T18:03:37;100817;;;7.73;27.41
69027;BME280;56080;47.594;19.116;2023-03-16T18:13:42;100826;;;7.50;28.01
69027;BME280;56080;47.594;19.116;2023-03-16T18:23:39;100836;;;7.35;28.20
69027;BME280;56080;47.594;19.116;2023-03-16T18:33:41;100842;;;7.17;29.42
69027;BME280;56080;47.594;19.116;2023-03-16T18:43:40;100879;;;6.54;36.10
69027;BME280;56080;47.594;19.116;2023-03-16T18:53:43;100892;;;6.49;35.20
69027;BME280;56080;47.594;19.116;2023-03-16T19:03:43;100908;;;6.18;33.80
69027;BME280;56080;47.594;19.116;2023-03-16T19:13:43;100924;;;6.42;32.47
69027;BME280;56080;47.594;19.116;2023-03-16T19:23:42;100933;;;6.53;33.49
69027;BME280;56080;47.594;19.116;2023-03-16T19:33:44;100957;;;6.67;33.42
69027;BME280;56080;47.594;19.116;2023-03-16T19:43:45;100973;;;6.51;34.02
69027;BME280;56080;47.594;19.116;2023-03-16T19:53:45;100984;;;6.52;34.50
69027;BME280;56080;47.594;19.116;2023-03-16T20:03:46;100990;;;6.37;35.33
69027;BME280;56080;47.594;19.116;2023-03-16T20:13:45;101001;;;5.97;36.11
69027;BME280;56080;47.594;19.116;2023-03-16T20:23:49;101012;;;5.96;36.78
69027;BME280;56080;47.594;19.116;2023-03-16T20:33:45;101017;;;5.68;37.86
69027;BME280;56080;47.594;19.116;2023-03-16T20:43:48;101032;;;5.29;40.88
69027;BME280;56080;47.594;19.116;2023-03-16T20:53:46;101044;;;5.23;41.51
69027;BME280;56080;47.594;19.116;2023-03-16T21:03:47;101045;;;4.84;42.20
69027;BME280;56080;47.594;19.116;2023-03-16T21:13:46;101053;;;4.67;42.44
69027;BME280;56080;47.594;19.116;2023-03-16T21:23:47;101061;;;4.52;42.30
69027;BME280;56080;47.594;19.116;2023-03-16T21:33:48;101074;;;4.47;43.10
69027;BME280;56080;47.594;19.116;2023-03-16T21:43:49;101076;;;4.17;44.70
69027;BME280;56080;47.594;19.116;2023-03-16T21:53:48;101076;;;3.81;46.14
69027;BME280;56080;47.594;19.116;2023-03-16T22:03:52;101079;;;3.70;46.37
69027;BME280;56080;47.594;19.116;2023-03-16T22:13:48;101084;;;3.33;46.87
69027;BME280;56080;47.594;19.116;2023-03-16T22:23:48;101094;;;3.25;47.51
69027;BME280;56080;47.594;19.116;2023-03-16T22:33:49;101091;;;3.05;50.59
69027;BME280;56080;47.594;19.116;2023-03-16T22:43:48;101093;;;2.98;53.01
69027;BME280;56080;47.594;19.116;2023-03-16T22:53:49;101100;;;2.84;55.07
69027;BME280;56080;47.594;19.116;2023-03-16T23:03:50;101106;;;2.63;55.42
69027;BME280;56080;47.594;19.116;2023-03-16T23:13:51;101118;;;1.79;59.77
69027;BME280;56080;47.594;19.116;2023-03-16T23:23:59;101125;;;1.73;61.52
69027;BME280;56080;47.594;19.116;2023-03-16T23:33:50;101132;;;1.84;61.45
69027;BME280;56080;47.594;19.116;2023-03-16T23:43:50;101131;;;1.73;61.69
69027;BME280;56080;47.594;19.116;2023-03-16T23:53:51;101138;;;1.41;62.19
